Eurocargo Venezia — IBKS — position and weather

sailwx.info

Track history (hours):
 
Tides and Currents Weather Stations Pressure Air Temp Water Temp Dewpoint Dewpoint Depression Visibility Wind Speed Wind Dir Waves Ship Positions

Eurocargo Venezia

Last reported at 2017-Sep-24 09:02 UTC. Time now 2017-Sep-24 21:26 UTC.
Position N 39°25' E 014°50'.

Length 200 m; draft 7.3 m.

Type: Ship (hazmat cat D). MMSI: 247297200.

Date/timePositionNaut miles runAvg speedWind from/ knotsBaromVisibWave heightAir tempDewpointWater temp
2017-Sep-24 09:02N 39°25' E 014°50'120.3
2017-Sep-24 09:00N 39°25' E 014°51'4419.6
2017-Sep-24 06:46N 38°49' E 015°23'621.5
2017-Sep-24 06:30N 38°44' E 015°26'1121.2
2017-Sep-24 06:00N 38°34' E 015°32'1121.2
2017-Sep-24 05:30N 38°25' E 015°38'1016.5
2017-Sep-24 04:55N 38°15' E 015°41'717.0
2017-Sep-24 04:30N 38°09' E 015°36'1019.6
2017-Sep-24 04:00N 38°00' E 015°31'1220.7
2017-Sep-24 03:24N 37°49' E 015°24'  
2017-Sep-21 16:05N 42°32' E 010°49'819.7
2017-Sep-21 15:40N 42°39' E 010°43'420.1
2017-Sep-21 15:29N 42°42' E 010°40'1120.2
2017-Sep-21 14:58N 42°51' E 010°32'1720.3
2017-Sep-21 14:07N 43°06' E 010°23'320.7
2017-Sep-21 13:59N 43°09' E 010°22'1020.8
2017-Sep-21 13:30N 43°18' E 010°17'1020.0
2017-Sep-21 13:00N 43°28' E 010°13'611.1
2017-Sep-21 12:30N 43°33' E 010°17'3 4.9
2017-Sep-21 11:59N 43°35' E 010°19'0 0.1
2017-Sep-21 11:30N 43°35' E 010°19'0 0.0
2017-Sep-21 11:00N 43°35' E 010°19'0 0.0
2017-Sep-21 10:26N 43°35' E 010°19'0 0.0
2017-Sep-21 10:00N 43°35' E 010°19'0 0.0
2017-Sep-21 09:27N 43°35' E 010°19'0 0.0
2017-Sep-21 08:59N 43°35' E 010°19'0 0.0
2017-Sep-21 08:29N 43°35' E 010°19'0 0.0
2017-Sep-21 07:59N 43°35' E 010°19'0 0.0
2017-Sep-21 07:29N 43°35' E 010°19'0 0.3
2017-Sep-21 07:00N 43°35' E 010°19'4 7.0
2017-Sep-21 06:29N 43°32' E 010°16'1 2.4
2017-Sep-21 06:00N 43°31' E 010°15'2 4.9
2017-Sep-21 05:30N 43°30' E 010°12'2 3.0
2017-Sep-21 05:00N 43°29' E 010°10'0 0.9
2017-Sep-21 04:30N 43°28' E 010°11'1 2.7
2017-Sep-21 04:00N 43°28' E 010°09'3 5.5
2017-Sep-21 03:30N 43°28' E 010°06'5 9.9
2017-Sep-21 03:00N 43°31' E 010°01'713.4
2017-Sep-21 02:30N 43°34' E 009°52'714.1
2017-Sep-21 02:00N 43°39' E 009°46'713.3
2017-Sep-21 01:30N 43°44' E 009°40'713.4
2017-Sep-21 00:59N 43°50' E 009°34'613.3
2017-Sep-21 00:30N 43°55' E 009°28'713.3
2017-Sep-21 00:00N 43°60' E 009°22'713.2
2017-Sep-20 23:30N 44°05' E 009°16'713.5
2017-Sep-20 23:00N 44°10' E 009°10'713.4
2017-Sep-20 22:30N 44°15' E 009°04'713.2
2017-Sep-20 22:00N 44°20' E 008°58'5 9.6
2017-Sep-20 21:30N 44°24' E 008°54'1 1.6
2017-Sep-20 20:59N 44°24' E 008°53'0 0.0
2017-Sep-20 20:29N 44°24' E 008°53'0 0.0
2017-Sep-20 19:59N 44°24' E 008°53'0 0.0
2017-Sep-20 19:29N 44°24' E 008°53'0 0.0
2017-Sep-20 18:59N 44°24' E 008°53'0 0.0
2017-Sep-20 18:26N 44°24' E 008°53'0 0.0
2017-Sep-20 17:59N 44°24' E 008°53'0 0.0
2017-Sep-20 17:29N 44°24' E 008°53'0 0.0
2017-Sep-20 16:59N 44°24' E 008°53'0 0.0
2017-Sep-20 16:29N 44°24' E 008°53'0 0.0
2017-Sep-20 15:59N 44°24' E 008°53'0 0.0
2017-Sep-20 15:29N 44°24' E 008°53'0 0.0
2017-Sep-20 14:59N 44°24' E 008°53'0 0.0
2017-Sep-20 13:59N 44°24' E 008°53'0 0.0
2017-Sep-20 13:29N 44°24' E 008°53'0 0.0
2017-Sep-20 12:59N 44°24' E 008°53'0 0.0
2017-Sep-20 12:29N 44°24' E 008°53'0 0.0
2017-Sep-20 12:00N 44°24' E 008°53'2 3.8
2017-Sep-20 11:30N 44°24' E 008°56'2 3.2
2017-Sep-20 11:00N 44°23' E 008°57'815.6
2017-Sep-20 10:30N 44°16' E 009°04'917.4
2017-Sep-20 10:00N 44°09' E 009°11'917.8
2017-Sep-20 09:30N 44°03' E 009°19'918.2
2017-Sep-20 09:00N 43°56' E 009°27'918.3
2017-Sep-20 08:30N 43°49' E 009°35'917.8
2017-Sep-20 08:00N 43°42' E 009°43'917.4
2017-Sep-20 07:29N 43°35' E 009°51'816.8
2017-Sep-20 07:00N 43°30' E 009°60'816.7
2017-Sep-20 06:30N 43°23' E 010°07'917.3
2017-Sep-20 06:00N 43°15' E 010°12'917.7
2017-Sep-20 05:30N 43°08' E 010°18'2817.8
2017-Sep-20 03:55N 42°44' E 010°38'29817.8
2017-Sep-19 11:14N 39°06' E 015°07'518.0
2017-Sep-19 10:58N 39°02' E 015°11'818.0
2017-Sep-19 10:30N 38°55' E 015°17'918.4
2017-Sep-19 10:00N 38°48' E 015°23'918.4
2017-Sep-19 09:30N 38°39' E 015°29'918.3
2017-Sep-19 09:00N 38°31' E 015°34'918.4
2017-Sep-19 08:30N 38°23' E 015°39'815.6
2017-Sep-19 08:00N 38°15' E 015°41'713.5
2017-Sep-19 07:31N 38°09' E 015°37'917.1
2017-Sep-19 07:01N 38°02' E 015°32'918.5
2017-Sep-19 06:30N 37°53' E 015°27'1019.7
2017-Sep-19 06:00N 37°44' E 015°21'29 2.9
2017-Sep-18 19:57N 37°15' E 015°20'1819.8
2017-Sep-18 19:03N 36°58' E 015°25'321.3
2017-Sep-18 18:55N 36°55' E 015°23'921.0
2017-Sep-18 18:30N 36°48' E 015°18'1120.9
2017-Sep-18 18:00N 36°38' E 015°12'1020.5
2017-Sep-18 17:30N 36°30' E 015°05'1020.6
2017-Sep-18 17:00N 36°22' E 014°57'1121.3
2017-Sep-18 16:30N 36°13' E 014°49'1121.2
2017-Sep-18 16:00N 36°05' E 014°41'1020.9
2017-Sep-18 15:30N 35°56' E 014°34'4 1.4
2017-Sep-18 12:35N 35°53' E 014°31'0 0.0
2017-Sep-18 02:29N 35°53' E 014°31'3 6.2
2017-Sep-18 02:00N 35°56' E 014°33'1018.3
2017-Sep-18 01:29N 36°05' E 014°34'816.7
2017-Sep-18 01:00N 36°12' E 014°29'917.5
2017-Sep-18 00:30N 36°17' E 014°20'917.5
2017-Sep-18 00:00N 36°23' E 014°12'917.6
2017-Sep-17 23:30N 36°29' E 014°04'917.8
2017-Sep-17 23:00N 36°34' E 013°55'918.0
2017-Sep-17 22:30N 36°40' E 013°47'918.0
2017-Sep-17 22:00N 36°46' E 013°38'918.0
2017-Sep-17 21:30N 36°52' E 013°29'38018.3
2017-Sep-17 00:44N 42°31' E 009°48'3319.1
2017-Sep-16 22:59N 43°03' E 009°34'919.1
2017-Sep-16 22:29N 43°12' E 009°31'919.2
2017-Sep-16 22:00N 43°21' E 009°27'1019.5
2017-Sep-16 21:30N 43°30' E 009°22'1019.5
2017-Sep-16 21:00N 43°39' E 009°18'1019.4
2017-Sep-16 20:30N 43°48' E 009°13'1020.1
2017-Sep-16 20:00N 43°58' E 009°09'1020.4
2017-Sep-16 19:30N 44°07' E 009°04'1020.4
2017-Sep-16 19:00N 44°17' E 008°59'714.7
2017-Sep-16 18:30N 44°24' E 008°55'1 2.7
2017-Sep-16 18:00N 44°24' E 008°53'0 0.0
2017-Sep-16 17:30N 44°24' E 008°53'0 0.0
2017-Sep-16 17:00N 44°24' E 008°53'0 0.0
2017-Sep-16 16:30N 44°24' E 008°53'0 0.0
2017-Sep-16 16:00N 44°24' E 008°53'0 0.0
2017-Sep-16 15:30N 44°24' E 008°53'0 0.0
2017-Sep-16 15:00N 44°24' E 008°53'0 0.0
2017-Sep-16 14:30N 44°24' E 008°53'0 0.0
2017-Sep-16 14:00N 44°24' E 008°53'0 0.0
2017-Sep-16 13:30N 44°24' E 008°53'0 0.0
2017-Sep-16 13:00N 44°24' E 008°53'0 0.0
2017-Sep-16 12:30N 44°24' E 008°53'0 0.0
2017-Sep-16 12:00N 44°24' E 008°53'0 0.0
2017-Sep-16 11:30N 44°24' E 008°53'0 0.0
2017-Sep-16 11:00N 44°24' E 008°53'0 0.0
2017-Sep-16 10:30N 44°24' E 008°53'0 0.0
2017-Sep-16 10:00N 44°24' E 008°53'0 0.0
2017-Sep-16 09:30N 44°24' E 008°53'3 5.5
2017-Sep-16 09:00N 44°23' E 008°57'713.7
2017-Sep-16 08:30N 44°17' E 009°02'918.4
2017-Sep-16 08:00N 44°10' E 009°10'918.2
2017-Sep-16 07:31N 44°03' E 009°18'917.5
2017-Sep-16 07:00N 43°57' E 009°26'816.8
2017-Sep-16 06:30N 43°50' E 009°34'917.3
2017-Sep-16 06:00N 43°44' E 009°41'917.4
2017-Sep-16 05:30N 43°37' E 009°49'917.3
2017-Sep-16 05:00N 43°31' E 009°58'917.2
2017-Sep-16 04:30N 43°25' E 010°06'918.1
2017-Sep-16 04:00N 43°17' E 010°12'918.4
2017-Sep-16 03:30N 43°09' E 010°17'30618.2
2017-Sep-15 10:42N 39°23' E 014°52'418.4
2017-Sep-15 10:29N 39°19' E 014°55'1318.4
2017-Sep-15 09:48N 39°09' E 015°05'618.5
2017-Sep-15 09:27N 39°04' E 015°09'818.6
2017-Sep-15 09:01N 38°57' E 015°16'1019.1
2017-Sep-15 08:30N 38°49' E 015°23'918.7
2017-Sep-15 08:00N 38°41' E 015°28'918.7
2017-Sep-15 07:30N 38°32' E 015°33'918.6
2017-Sep-15 07:00N 38°24' E 015°39'917.2
2017-Sep-15 06:30N 38°16' E 015°41'714.0
2017-Sep-15 06:00N 38°10' E 015°36'816.8
2017-Sep-15 05:30N 38°02' E 015°33'918.7
2017-Sep-15 05:00N 37°54' E 015°27'1019.2
2017-Sep-15 04:30N 37°45' E 015°22'1019.8
2017-Sep-15 04:00N 37°36' E 015°16'1018.9
2017-Sep-15 03:27N 37°27' E 015°09'22 2.1
2017-Sep-14 17:07N 37°08' E 015°23'213.6
2017-Sep-14 17:00N 37°07' E 015°23'713.6
2017-Sep-14 16:30N 37°00' E 015°26'714.0
2017-Sep-14 16:00N 36°54' E 015°22'714.6
2017-Sep-14 15:30N 36°47' E 015°18'714.3
2017-Sep-14 15:00N 36°41' E 015°14'714.4
2017-Sep-14 14:29N 36°35' E 015°08'714.5
2017-Sep-14 14:00N 36°29' E 015°03'714.8
2017-Sep-14 13:30N 36°23' E 014°58'714.7
2017-Sep-14 13:00N 36°17' E 014°53'714.7
2017-Sep-14 12:30N 36°11' E 014°47'714.6
2017-Sep-14 12:00N 36°05' E 014°42'714.6
2017-Sep-14 11:30N 35°59' E 014°37'714.4
2017-Sep-14 11:01N 35°54' E 014°31'1 1.5
2017-Sep-14 10:26N 35°53' E 014°31'0 0.0
2017-Sep-14 09:56N 35°53' E 014°31'0 0.0
2017-Sep-14 09:29N 35°53' E 014°31'  
Track history (hours):
 
Tides and Currents Weather Stations Pressure Air Temp Water Temp Dewpoint Dewpoint Depression Visibility Wind Speed Wind Dir Waves Ship Positions

Eurocargo Venezia

Last reported at 2017-Sep-24 09:02 UTC. Time now 2017-Sep-24 21:26 UTC.
Position N 39°25' E 014°50'.

Length 200 m; draft 7.3 m.

Type: Ship (hazmat cat D). MMSI: 247297200.

Date/timePositionNaut miles runAvg speedWind from/ knotsBaromVisibWave heightAir tempDewpointWater temp
2017-Sep-24 09:02N 39°25' E 014°50'120.3
2017-Sep-24 09:00N 39°25' E 014°51'4419.6
2017-Sep-24 06:46N 38°49' E 015°23'621.5
2017-Sep-24 06:30N 38°44' E 015°26'1121.2
2017-Sep-24 06:00N 38°34' E 015°32'1121.2
2017-Sep-24 05:30N 38°25' E 015°38'1016.5
2017-Sep-24 04:55N 38°15' E 015°41'717.0
2017-Sep-24 04:30N 38°09' E 015°36'1019.6
2017-Sep-24 04:00N 38°00' E 015°31'1220.7
2017-Sep-24 03:24N 37°49' E 015°24'  
2017-Sep-21 16:05N 42°32' E 010°49'819.7
2017-Sep-21 15:40N 42°39' E 010°43'420.1
2017-Sep-21 15:29N 42°42' E 010°40'1120.2
2017-Sep-21 14:58N 42°51' E 010°32'1720.3
2017-Sep-21 14:07N 43°06' E 010°23'320.7
2017-Sep-21 13:59N 43°09' E 010°22'1020.8
2017-Sep-21 13:30N 43°18' E 010°17'1020.0
2017-Sep-21 13:00N 43°28' E 010°13'611.1
2017-Sep-21 12:30N 43°33' E 010°17'3 4.9
2017-Sep-21 11:59N 43°35' E 010°19'0 0.1
2017-Sep-21 11:30N 43°35' E 010°19'0 0.0
2017-Sep-21 11:00N 43°35' E 010°19'0 0.0
2017-Sep-21 10:26N 43°35' E 010°19'0 0.0
2017-Sep-21 10:00N 43°35' E 010°19'0 0.0
2017-Sep-21 09:27N 43°35' E 010°19'0 0.0
2017-Sep-21 08:59N 43°35' E 010°19'0 0.0
2017-Sep-21 08:29N 43°35' E 010°19'0 0.0
2017-Sep-21 07:59N 43°35' E 010°19'0 0.0
2017-Sep-21 07:29N 43°35' E 010°19'0 0.3
2017-Sep-21 07:00N 43°35' E 010°19'4 7.0
2017-Sep-21 06:29N 43°32' E 010°16'1 2.4
2017-Sep-21 06:00N 43°31' E 010°15'2 4.9
2017-Sep-21 05:30N 43°30' E 010°12'2 3.0
2017-Sep-21 05:00N 43°29' E 010°10'0 0.9
2017-Sep-21 04:30N 43°28' E 010°11'1 2.7
2017-Sep-21 04:00N 43°28' E 010°09'3 5.5
2017-Sep-21 03:30N 43°28' E 010°06'5 9.9
2017-Sep-21 03:00N 43°31' E 010°01'713.4
2017-Sep-21 02:30N 43°34' E 009°52'714.1
2017-Sep-21 02:00N 43°39' E 009°46'713.3
2017-Sep-21 01:30N 43°44' E 009°40'713.4
2017-Sep-21 00:59N 43°50' E 009°34'613.3
2017-Sep-21 00:30N 43°55' E 009°28'713.3
2017-Sep-21 00:00N 43°60' E 009°22'713.2
2017-Sep-20 23:30N 44°05' E 009°16'713.5
2017-Sep-20 23:00N 44°10' E 009°10'713.4
2017-Sep-20 22:30N 44°15' E 009°04'713.2
2017-Sep-20 22:00N 44°20' E 008°58'5 9.6
2017-Sep-20 21:30N 44°24' E 008°54'1 1.6
2017-Sep-20 20:59N 44°24' E 008°53'0 0.0
2017-Sep-20 20:29N 44°24' E 008°53'0 0.0
2017-Sep-20 19:59N 44°24' E 008°53'0 0.0
2017-Sep-20 19:29N 44°24' E 008°53'0 0.0
2017-Sep-20 18:59N 44°24' E 008°53'0 0.0
2017-Sep-20 18:26N 44°24' E 008°53'0 0.0
2017-Sep-20 17:59N 44°24' E 008°53'0 0.0
2017-Sep-20 17:29N 44°24' E 008°53'0 0.0
2017-Sep-20 16:59N 44°24' E 008°53'0 0.0
2017-Sep-20 16:29N 44°24' E 008°53'0 0.0
2017-Sep-20 15:59N 44°24' E 008°53'0 0.0
2017-Sep-20 15:29N 44°24' E 008°53'0 0.0
2017-Sep-20 14:59N 44°24' E 008°53'0 0.0
2017-Sep-20 13:59N 44°24' E 008°53'0 0.0
2017-Sep-20 13:29N 44°24' E 008°53'0 0.0
2017-Sep-20 12:59N 44°24' E 008°53'0 0.0
2017-Sep-20 12:29N 44°24' E 008°53'0 0.0
2017-Sep-20 12:00N 44°24' E 008°53'2 3.8
2017-Sep-20 11:30N 44°24' E 008°56'2 3.2
2017-Sep-20 11:00N 44°23' E 008°57'815.6
2017-Sep-20 10:30N 44°16' E 009°04'917.4
2017-Sep-20 10:00N 44°09' E 009°11'917.8
2017-Sep-20 09:30N 44°03' E 009°19'918.2
2017-Sep-20 09:00N 43°56' E 009°27'918.3
2017-Sep-20 08:30N 43°49' E 009°35'917.8
2017-Sep-20 08:00N 43°42' E 009°43'917.4
2017-Sep-20 07:29N 43°35' E 009°51'816.8
2017-Sep-20 07:00N 43°30' E 009°60'816.7
2017-Sep-20 06:30N 43°23' E 010°07'917.3
2017-Sep-20 06:00N 43°15' E 010°12'917.7
2017-Sep-20 05:30N 43°08' E 010°18'2817.8
2017-Sep-20 03:55N 42°44' E 010°38'29817.8
2017-Sep-19 11:14N 39°06' E 015°07'518.0
2017-Sep-19 10:58N 39°02' E 015°11'818.0
2017-Sep-19 10:30N 38°55' E 015°17'918.4
2017-Sep-19 10:00N 38°48' E 015°23'918.4
2017-Sep-19 09:30N 38°39' E 015°29'918.3
2017-Sep-19 09:00N 38°31' E 015°34'918.4
2017-Sep-19 08:30N 38°23' E 015°39'815.6
2017-Sep-19 08:00N 38°15' E 015°41'713.5
2017-Sep-19 07:31N 38°09' E 015°37'917.1
2017-Sep-19 07:01N 38°02' E 015°32'918.5
2017-Sep-19 06:30N 37°53' E 015°27'1019.7
2017-Sep-19 06:00N 37°44' E 015°21'29 2.9
2017-Sep-18 19:57N 37°15' E 015°20'1819.8
2017-Sep-18 19:03N 36°58' E 015°25'321.3
2017-Sep-18 18:55N 36°55' E 015°23'921.0
2017-Sep-18 18:30N 36°48' E 015°18'1120.9
2017-Sep-18 18:00N 36°38' E 015°12'1020.5
2017-Sep-18 17:30N 36°30' E 015°05'1020.6
2017-Sep-18 17:00N 36°22' E 014°57'1121.3
2017-Sep-18 16:30N 36°13' E 014°49'1121.2
2017-Sep-18 16:00N 36°05' E 014°41'1020.9
2017-Sep-18 15:30N 35°56' E 014°34'4 1.4
2017-Sep-18 12:35N 35°53' E 014°31'0 0.0
2017-Sep-18 02:29N 35°53' E 014°31'3 6.2
2017-Sep-18 02:00N 35°56' E 014°33'1018.3
2017-Sep-18 01:29N 36°05' E 014°34'816.7
2017-Sep-18 01:00N 36°12' E 014°29'917.5
2017-Sep-18 00:30N 36°17' E 014°20'917.5
2017-Sep-18 00:00N 36°23' E 014°12'917.6
2017-Sep-17 23:30N 36°29' E 014°04'917.8
2017-Sep-17 23:00N 36°34' E 013°55'918.0
2017-Sep-17 22:30N 36°40' E 013°47'918.0
2017-Sep-17 22:00N 36°46' E 013°38'918.0
2017-Sep-17 21:30N 36°52' E 013°29'38018.3
2017-Sep-17 00:44N 42°31' E 009°48'3319.1
2017-Sep-16 22:59N 43°03' E 009°34'919.1
2017-Sep-16 22:29N 43°12' E 009°31'919.2
2017-Sep-16 22:00N 43°21' E 009°27'1019.5
2017-Sep-16 21:30N 43°30' E 009°22'1019.5
2017-Sep-16 21:00N 43°39' E 009°18'1019.4
2017-Sep-16 20:30N 43°48' E 009°13'1020.1
2017-Sep-16 20:00N 43°58' E 009°09'1020.4
2017-Sep-16 19:30N 44°07' E 009°04'1020.4
2017-Sep-16 19:00N 44°17' E 008°59'714.7
2017-Sep-16 18:30N 44°24' E 008°55'1 2.7
2017-Sep-16 18:00N 44°24' E 008°53'0 0.0
2017-Sep-16 17:30N 44°24' E 008°53'0 0.0
2017-Sep-16 17:00N 44°24' E 008°53'0 0.0
2017-Sep-16 16:30N 44°24' E 008°53'0 0.0
2017-Sep-16 16:00N 44°24' E 008°53'0 0.0
2017-Sep-16 15:30N 44°24' E 008°53'0 0.0
2017-Sep-16 15:00N 44°24' E 008°53'0 0.0
2017-Sep-16 14:30N 44°24' E 008°53'0 0.0
2017-Sep-16 14:00N 44°24' E 008°53'0 0.0
2017-Sep-16 13:30N 44°24' E 008°53'0 0.0
2017-Sep-16 13:00N 44°24' E 008°53'0 0.0
2017-Sep-16 12:30N 44°24' E 008°53'0 0.0
2017-Sep-16 12:00N 44°24' E 008°53'0 0.0
2017-Sep-16 11:30N 44°24' E 008°53'0 0.0
2017-Sep-16 11:00N 44°24' E 008°53'0 0.0
2017-Sep-16 10:30N 44°24' E 008°53'0 0.0
2017-Sep-16 10:00N 44°24' E 008°53'0 0.0
2017-Sep-16 09:30N 44°24' E 008°53'3 5.5
2017-Sep-16 09:00N 44°23' E 008°57'713.7
2017-Sep-16 08:30N 44°17' E 009°02'918.4
2017-Sep-16 08:00N 44°10' E 009°10'918.2
2017-Sep-16 07:31N 44°03' E 009°18'917.5
2017-Sep-16 07:00N 43°57' E 009°26'816.8
2017-Sep-16 06:30N 43°50' E 009°34'917.3
2017-Sep-16 06:00N 43°44' E 009°41'917.4
2017-Sep-16 05:30N 43°37' E 009°49'917.3
2017-Sep-16 05:00N 43°31' E 009°58'917.2
2017-Sep-16 04:30N 43°25' E 010°06'918.1
2017-Sep-16 04:00N 43°17' E 010°12'918.4
2017-Sep-16 03:30N 43°09' E 010°17'30618.2
2017-Sep-15 10:42N 39°23' E 014°52'418.4
2017-Sep-15 10:29N 39°19' E 014°55'1318.4
2017-Sep-15 09:48N 39°09' E 015°05'618.5
2017-Sep-15 09:27N 39°04' E 015°09'818.6
2017-Sep-15 09:01N 38°57' E 015°16'1019.1
2017-Sep-15 08:30N 38°49' E 015°23'918.7
2017-Sep-15 08:00N 38°41' E 015°28'918.7
2017-Sep-15 07:30N 38°32' E 015°33'918.6
2017-Sep-15 07:00N 38°24' E 015°39'917.2
2017-Sep-15 06:30N 38°16' E 015°41'714.0
2017-Sep-15 06:00N 38°10' E 015°36'816.8
2017-Sep-15 05:30N 38°02' E 015°33'918.7
2017-Sep-15 05:00N 37°54' E 015°27'1019.2
2017-Sep-15 04:30N 37°45' E 015°22'1019.8
2017-Sep-15 04:00N 37°36' E 015°16'1018.9
2017-Sep-15 03:27N 37°27' E 015°09'22 2.1
2017-Sep-14 17:07N 37°08' E 015°23'213.6
2017-Sep-14 17:00N 37°07' E 015°23'713.6
2017-Sep-14 16:30N 37°00' E 015°26'714.0
2017-Sep-14 16:00N 36°54' E 015°22'714.6
2017-Sep-14 15:30N 36°47' E 015°18'714.3
2017-Sep-14 15:00N 36°41' E 015°14'714.4
2017-Sep-14 14:29N 36°35' E 015°08'714.5
2017-Sep-14 14:00N 36°29' E 015°03'714.8
2017-Sep-14 13:30N 36°23' E 014°58'714.7
2017-Sep-14 13:00N 36°17' E 014°53'714.7
2017-Sep-14 12:30N 36°11' E 014°47'714.6
2017-Sep-14 12:00N 36°05' E 014°42'714.6
2017-Sep-14 11:30N 35°59' E 014°37'714.4
2017-Sep-14 11:01N 35°54' E 014°31'1 1.5
2017-Sep-14 10:26N 35°53' E 014°31'0 0.0
2017-Sep-14 09:56N 35°53' E 014°31'0 0.0
2017-Sep-14 09:29N 35°53' E 014°31'  

Dump ship's entire track history